createdAt,value
2023-03-27T00:00:20.376Z,8.40
2023-03-27T00:03:25.487Z,8.35
2023-03-27T00:06:28.410Z,8.32
2023-03-27T00:09:32.058Z,8.26
2023-03-27T00:12:36.368Z,8.28
2023-03-27T00:15:40.927Z,8.27
2023-03-27T00:18:45.198Z,8.10
2023-03-27T00:21:48.732Z,8.13
2023-03-27T00:24:51.935Z,8.12
2023-03-27T00:27:58.470Z,8.14
2023-03-27T00:31:01.741Z,8.19
2023-03-27T00:34:05.081Z,8.21
2023-03-27T00:37:07.965Z,8.21
2023-03-27T00:40:15.592Z,8.16
2023-03-27T00:43:26.258Z,8.19
2023-03-27T00:46:39.151Z,8.11
2023-03-27T00:49:41.922Z,8.19
2023-03-27T00:52:48.439Z,8.20
2023-03-27T00:55:54.205Z,8.19
2023-03-27T00:59:02.168Z,8.16
2023-03-27T01:02:06.147Z,8.12
2023-03-27T01:05:11.444Z,8.10
2023-03-27T01:08:15.531Z,8.04
2023-03-27T01:11:31.198Z,8.01
2023-03-27T01:14:41.550Z,7.95
2023-03-27T01:17:59.858Z,7.87
2023-03-27T01:21:47.837Z,7.78
2023-03-27T01:25:22.612Z,7.78
2023-03-27T01:28:42.621Z,7.75
2023-03-27T01:32:02.464Z,7.73
2023-03-27T01:35:30.022Z,7.71
2023-03-27T01:39:08.801Z,7.71
2023-03-27T01:42:21.446Z,7.77
2023-03-27T01:45:30.096Z,7.76
2023-03-27T01:48:40.949Z,7.74
2023-03-27T01:51:50.019Z,7.73
2023-03-27T01:54:58.378Z,7.69
2023-03-27T01:58:07.913Z,7.59
2023-03-27T02:01:12.451Z,7.55
2023-03-27T02:04:19.621Z,7.48
2023-03-27T02:07:28.100Z,7.40
2023-03-27T02:10:37.637Z,7.30
2023-03-27T02:13:46.033Z,7.29
2023-03-27T02:16:54.291Z,7.22
2023-03-27T02:20:02.506Z,7.10
2023-03-27T02:23:06.579Z,6.96
2023-03-27T02:26:12.497Z,6.82
2023-03-27T02:29:32.524Z,6.73
2023-03-27T02:32:46.271Z,6.66
2023-03-27T02:35:58.386Z,6.70
2023-03-27T02:39:08.764Z,6.64
2023-03-27T02:42:19.003Z,6.62
2023-03-27T02:45:29.700Z,6.49
2023-03-27T02:48:35.486Z,6.43
2023-03-27T02:51:43.657Z,6.49
2023-03-27T02:54:53.443Z,6.39
2023-03-27T02:58:00.700Z,6.36
2023-03-27T03:01:09.297Z,6.34
2023-03-27T03:04:18.723Z,6.44
2023-03-27T03:07:22.669Z,6.41
2023-03-27T03:10:26.007Z,6.44
2023-03-27T03:13:28.756Z,6.36
2023-03-27T03:16:33.418Z,6.33
2023-03-27T03:19:37.116Z,6.24
2023-03-27T03:22:40.256Z,6.32
2023-03-27T03:25:44.707Z,6.22
2023-03-27T03:29:00.050Z,6.27
2023-03-27T03:32:06.703Z,6.35
2023-03-27T03:35:10.039Z,6.43
2023-03-27T03:38:12.833Z,6.39
2023-03-27T03:41:15.690Z,6.31
2023-03-27T03:44:18.622Z,6.31
2023-03-27T03:47:23.511Z,6.21
2023-03-27T03:50:26.205Z,6.11
2023-03-27T03:53:28.938Z,6.11
2023-03-27T03:56:31.782Z,6.15
2023-03-27T03:59:34.627Z,6.14
2023-03-27T04:02:40.710Z,6.16
2023-03-27T04:05:43.897Z,6.06
2023-03-27T04:08:46.660Z,6.03
2023-03-27T04:11:49.339Z,5.92
2023-03-27T04:14:52.168Z,5.83
2023-03-27T04:17:57.765Z,5.67
2023-03-27T04:21:00.696Z,5.56
2023-03-27T04:24:03.413Z,5.55
2023-03-27T04:27:07.359Z,5.53
2023-03-27T04:30:14.083Z,5.52
2023-03-27T04:33:19.361Z,5.46
2023-03-27T04:36:22.611Z,5.46
2023-03-27T04:39:26.462Z,5.46
2023-03-27T04:42:29.279Z,5.43
2023-03-27T04:45:32.540Z,5.38
2023-03-27T04:48:39.069Z,5.23
2023-03-27T04:51:42.873Z,5.20
2023-03-27T04:54:46.601Z,5.20
2023-03-27T04:57:49.262Z,5.09
2023-03-27T05:00:55.678Z,5.05
2023-03-27T05:04:02.477Z,4.95
2023-03-27T05:07:05.697Z,4.82
2023-03-27T05:10:09.733Z,4.89
2023-03-27T05:13:13.033Z,4.92
2023-03-27T05:16:17.594Z,4.82
2023-03-27T05:19:22.194Z,4.88
2023-03-27T05:22:25.139Z,4.82
2023-03-27T05:25:28.584Z,4.79
2023-03-27T05:28:31.651Z,4.83
2023-03-27T05:31:34.513Z,4.79
2023-03-27T05:34:38.965Z,4.75
2023-03-27T05:37:41.677Z,4.71
2023-03-27T05:40:44.821Z,4.74
2023-03-27T05:43:49.032Z,4.73
2023-03-27T05:46:52.963Z,4.72
2023-03-27T05:49:57.117Z,4.72
2023-03-27T05:53:02.458Z,4.70
2023-03-27T05:56:05.738Z,4.73
2023-03-27T05:59:08.553Z,4.65
2023-03-27T06:02:11.985Z,4.65
2023-03-27T06:05:16.587Z,4.68
2023-03-27T06:08:19.414Z,4.75
2023-03-27T06:11:22.240Z,4.72
2023-03-27T06:14:25.044Z,4.67
2023-03-27T06:17:28.034Z,4.75
2023-03-27T06:20:32.877Z,4.73
2023-03-27T06:23:35.940Z,4.73
2023-03-27T06:26:39.257Z,4.76
2023-03-27T06:29:41.985Z,4.74
2023-03-27T06:32:46.322Z,4.72
2023-03-27T06:35:52.948Z,4.75
2023-03-27T06:38:56.694Z,4.78
2023-03-27T06:41:59.831Z,4.93
2023-03-27T06:45:02.951Z,4.99
2023-03-27T06:48:17.277Z,5.06
2023-03-27T06:51:26.885Z,5.03
2023-03-27T06:54:29.945Z,5.14
2023-03-27T06:57:32.801Z,5.15
2023-03-27T07:00:39.124Z,5.14
2023-03-27T07:03:42.119Z,5.15
2023-03-27T07:06:48.867Z,5.20
2023-03-27T07:09:52.670Z,5.20
2023-03-27T07:12:55.605Z,5.28
2023-03-27T07:15:58.571Z,5.29
2023-03-27T07:19:02.559Z,5.28
2023-03-27T07:22:07.124Z,5.23
2023-03-27T07:25:12.127Z,5.37
2023-03-27T07:28:16.749Z,5.39
2023-03-27T07:31:33.124Z,5.44
2023-03-27T07:34:39.824Z,5.57
2023-03-27T07:37:44.811Z,5.72
2023-03-27T07:40:47.701Z,5.73
2023-03-27T07:43:50.640Z,5.71
2023-03-27T07:46:53.514Z,5.60
2023-03-27T07:49:56.353Z,5.55
2023-03-27T07:53:00.913Z,5.53
2023-03-27T07:56:03.745Z,5.53
2023-03-27T07:59:06.726Z,5.65
2023-03-27T08:02:11.018Z,5.60
2023-03-27T08:05:13.888Z,5.58
2023-03-27T08:08:17.946Z,5.66
2023-03-27T08:11:30.375Z,5.92
2023-03-27T08:14:33.755Z,5.84
2023-03-27T08:17:36.932Z,5.94
2023-03-27T08:20:39.956Z,6.08
2023-03-27T08:23:44.109Z,6.22
2023-03-27T08:26:47.117Z,6.21
2023-03-27T08:29:49.823Z,6.25
2023-03-27T08:32:52.906Z,6.23
2023-03-27T08:35:57.723Z,6.43
2023-03-27T08:39:02.758Z,6.56
2023-03-27T08:42:09.397Z,6.68
2023-03-27T08:45:20.963Z,6.74
2023-03-27T08:48:28.228Z,6.79
2023-03-27T08:51:36.078Z,6.71
2023-03-27T08:54:41.036Z,6.96
2023-03-27T08:57:43.921Z,7.11
2023-03-27T09:00:51.942Z,7.13
2023-03-27T09:04:01.668Z,7.27
2023-03-27T09:07:11.049Z,7.44
2023-03-27T09:10:23.622Z,7.70
2023-03-27T09:13:31.955Z,8.08
2023-03-27T09:16:39.665Z,8.52
2023-03-27T09:19:48.131Z,8.65
2023-03-27T09:22:54.488Z,8.69
2023-03-27T09:26:01.840Z,8.91
2023-03-27T09:29:12.465Z,9.21
2023-03-27T09:32:23.729Z,9.33
2023-03-27T09:35:27.382Z,9.46
2023-03-27T09:38:36.097Z,9.65
2023-03-27T09:41:43.825Z,9.74
2023-03-27T09:44:50.810Z,9.72
2023-03-27T09:47:59.710Z,9.91
2023-03-27T09:51:05.297Z,9.97
2023-03-27T09:54:08.769Z,10.27
2023-03-27T09:57:13.406Z,10.35
2023-03-27T10:00:29.309Z,10.27
2023-03-27T10:03:38.959Z,10.00
2023-03-27T10:06:45.809Z,10.14
2023-03-27T10:10:05.645Z,10.18
2023-03-27T10:13:14.124Z,10.09
2023-03-27T10:16:18.773Z,10.33
2023-03-27T10:19:25.225Z,10.52
2023-03-27T10:22:32.283Z,10.80
2023-03-27T10:25:38.009Z,10.89
2023-03-27T10:28:45.420Z,10.61
2023-03-27T10:31:53.121Z,10.18
2023-03-27T10:34:58.636Z,9.98
2023-03-27T10:38:03.675Z,10.24
2023-03-27T10:41:14.296Z,10.61
2023-03-27T10:44:21.494Z,11.04
2023-03-27T10:47:26.463Z,11.35
2023-03-27T10:50:33.697Z,11.45
2023-03-27T10:53:44.491Z,11.07
2023-03-27T10:56:58.575Z,11.19
2023-03-27T11:00:11.912Z,11.50
2023-03-27T11:03:28.075Z,11.24
2023-03-27T11:06:34.815Z,10.77
2023-03-27T11:09:43.736Z,10.40
2023-03-27T11:12:54.259Z,10.80
2023-03-27T11:16:08.709Z,11.23
2023-03-27T11:19:26.106Z,11.08
2023-03-27T11:22:34.147Z,10.62
2023-03-27T11:25:43.340Z,9.99
2023-03-27T11:29:02.003Z,9.62
2023-03-27T11:32:17.157Z,9.03
2023-03-27T11:35:24.683Z,8.97
2023-03-27T11:38:32.546Z,9.42
2023-03-27T11:41:35.370Z,10.17
2023-03-27T11:44:38.298Z,10.76
2023-03-27T11:47:54.211Z,11.10
2023-03-27T11:51:02.997Z,11.33
2023-03-27T11:54:23.293Z,11.13
2023-03-27T11:57:27.781Z,11.02
2023-03-27T12:00:36.294Z,11.23
2023-03-27T12:04:08.126Z,11.58
2023-03-27T12:07:34.140Z,11.95
2023-03-27T12:10:42.437Z,12.15
2023-03-27T12:14:17.618Z,11.75
2023-03-27T12:17:51.320Z,11.37
2023-03-27T12:21:07.073Z,11.44
2023-03-27T12:24:22.576Z,11.02
2023-03-27T12:27:37.473Z,10.76
2023-03-27T12:30:53.228Z,10.44
2023-03-27T12:34:02.798Z,10.11
2023-03-27T12:37:10.268Z,9.92
2023-03-27T12:40:29.006Z,10.08
2023-03-27T12:43:33.750Z,10.35
2023-03-27T12:46:39.399Z,10.48
2023-03-27T12:49:48.215Z,10.51
2023-03-27T12:52:53.413Z,10.33
2023-03-27T12:56:26.746Z,10.19
2023-03-27T12:59:33.528Z,10.23
2023-03-27T13:02:57.774Z,10.35
2023-03-27T13:06:26.937Z,10.16
2023-03-27T13:09:47.092Z,9.85
2023-03-27T13:13:24.637Z,9.53
2023-03-27T13:16:40.282Z,9.22
2023-03-27T13:19:54.202Z,9.06
2023-03-27T13:23:16.360Z,8.77
2023-03-27T13:26:40.465Z,8.72
2023-03-27T13:29:43.304Z,8.68
2023-03-27T13:33:10.973Z,8.70
2023-03-27T13:36:19.333Z,8.59
2023-03-27T13:39:24.742Z,8.39
2023-03-27T13:42:35.894Z,8.29
2023-03-27T13:45:47.017Z,8.23
2023-03-27T13:49:18.807Z,8.03
2023-03-27T13:52:54.430Z,7.67
2023-03-27T13:56:23.613Z,7.44
2023-03-27T14:00:02.075Z,7.47
2023-03-27T14:03:52.936Z,7.73
2023-03-27T14:07:45.944Z,8.21
2023-03-27T14:11:09.742Z,8.84
2023-03-27T14:14:27.412Z,8.97
2023-03-27T14:17:42.731Z,9.10
2023-03-27T14:20:47.609Z,9.03
2023-03-27T14:23:58.848Z,8.95
2023-03-27T14:27:02.980Z,8.64
2023-03-27T14:30:15.543Z,8.38
2023-03-27T14:33:20.228Z,8.40
2023-03-27T14:36:25.979Z,8.21
2023-03-27T14:39:31.404Z,8.17
2023-03-27T14:42:34.644Z,8.10
2023-03-27T14:45:40.680Z,8.06
2023-03-27T14:48:46.355Z,8.03
2023-03-27T14:51:50.515Z,7.94
2023-03-27T14:54:57.698Z,7.97
2023-03-27T14:58:11.388Z,7.96
2023-03-27T15:01:17.955Z,8.08
2023-03-27T15:04:21.465Z,8.07
2023-03-27T15:07:28.497Z,8.21
2023-03-27T15:10:32.970Z,8.19
2023-03-27T15:13:36.785Z,8.12
2023-03-27T15:16:39.928Z,7.94
2023-03-27T15:19:48.484Z,7.98
2023-03-27T15:22:55.426Z,7.85
2023-03-27T15:26:04.738Z,7.76
2023-03-27T15:29:13.942Z,7.68
2023-03-27T15:32:21.984Z,7.57
2023-03-27T15:35:31.026Z,7.63
2023-03-27T15:38:36.992Z,7.28
2023-03-27T15:41:44.003Z,7.07
2023-03-27T15:44:46.671Z,6.92
2023-03-27T15:48:00.919Z,6.90
2023-03-27T15:51:06.525Z,6.81
2023-03-27T15:54:25.369Z,6.82
2023-03-27T15:57:30.472Z,6.76
2023-03-27T16:00:33.180Z,6.72
2023-03-27T16:03:36.584Z,6.81
2023-03-27T16:06:41.867Z,6.84
2023-03-27T16:09:51.893Z,6.72
2023-03-27T16:13:01.933Z,6.67
2023-03-27T16:16:07.648Z,6.95
2023-03-27T16:19:13.542Z,7.08
2023-03-27T16:22:20.313Z,7.17
2023-03-27T16:25:22.959Z,7.05
2023-03-27T16:28:29.652Z,7.01
2023-03-27T16:31:32.555Z,6.94
2023-03-27T16:34:35.436Z,6.96
2023-03-27T16:37:38.165Z,6.81
2023-03-27T16:40:41.272Z,6.85
2023-03-27T16:43:46.329Z,6.82
2023-03-27T16:46:49.188Z,6.80
2023-03-27T16:50:07.900Z,6.82
2023-03-27T16:53:13.832Z,6.98
2023-03-27T16:56:17.054Z,7.06
2023-03-27T16:59:21.258Z,7.01
2023-03-27T17:02:25.469Z,7.10
2023-03-27T17:05:33.822Z,6.95
2023-03-27T17:08:37.674Z,6.88
2023-03-27T17:11:40.620Z,6.81
2023-03-27T17:14:44.609Z,6.76
2023-03-27T17:17:47.319Z,6.78
2023-03-27T17:20:49.949Z,6.73
2023-03-27T17:23:54.332Z,6.71
2023-03-27T17:26:56.980Z,6.71
2023-03-27T17:30:01.344Z,6.66
2023-03-27T17:33:05.011Z,6.63
2023-03-27T17:36:12.411Z,6.64
2023-03-27T17:39:15.242Z,6.56
2023-03-27T17:42:18.023Z,6.41
2023-03-27T17:45:24.278Z,6.24
2023-03-27T17:48:27.807Z,6.13
2023-03-27T17:51:30.896Z,6.01
2023-03-27T17:54:35.050Z,5.92
2023-03-27T17:57:39.535Z,5.92
2023-03-27T18:00:44.212Z,5.98
2023-03-27T18:03:47.760Z,5.98
2023-03-27T18:06:50.654Z,5.92
2023-03-27T18:09:53.490Z,5.89
2023-03-27T18:12:56.626Z,5.89
2023-03-27T18:16:02.203Z,5.88
2023-03-27T18:19:06.460Z,5.85
2023-03-27T18:22:09.276Z,5.77
2023-03-27T18:25:12.176Z,5.67
2023-03-27T18:28:14.974Z,5.62
2023-03-27T18:31:20.126Z,5.51
2023-03-27T18:34:22.915Z,5.45
2023-03-27T18:37:25.780Z,5.34
2023-03-27T18:40:28.483Z,5.30
2023-03-27T18:43:31.906Z,5.37
2023-03-27T18:46:36.711Z,5.58
2023-03-27T18:49:39.935Z,5.52
2023-03-27T18:52:42.712Z,5.45
2023-03-27T18:55:49.010Z,5.53
2023-03-27T18:58:51.689Z,5.44
2023-03-27T19:01:55.720Z,5.49
2023-03-27T19:04:58.387Z,5.43
2023-03-27T19:08:01.062Z,5.40
2023-03-27T19:11:03.732Z,5.46
2023-03-27T19:14:06.709Z,5.64
2023-03-27T19:17:14.522Z,5.70
2023-03-27T19:20:17.580Z,5.73
2023-03-27T19:23:20.250Z,5.74
2023-03-27T19:26:22.937Z,5.67
2023-03-27T19:29:25.721Z,5.70
2023-03-27T19:32:29.812Z,5.68
2023-03-27T19:35:32.556Z,5.73
2023-03-27T19:38:37.449Z,5.73
2023-03-27T19:41:41.387Z,5.64
2023-03-27T19:44:44.017Z,5.57
2023-03-27T19:47:48.150Z,5.53
2023-03-27T19:50:51.775Z,5.43
2023-03-27T19:53:55.505Z,5.63
2023-03-27T19:56:58.208Z,5.65
2023-03-27T20:00:00.888Z,5.45
2023-03-27T20:03:05.517Z,5.45
2023-03-27T20:06:13.270Z,5.43
2023-03-27T20:09:16.864Z,5.44
2023-03-27T20:12:19.762Z,5.53
2023-03-27T20:15:22.756Z,5.39
2023-03-27T20:18:32.481Z,5.23
2023-03-27T20:21:37.536Z,5.27
2023-03-27T20:24:40.601Z,5.26
2023-03-27T20:27:43.332Z,5.19
2023-03-27T20:30:46.201Z,5.17
2023-03-27T20:33:52.345Z,5.12
2023-03-27T20:36:58.830Z,5.10
2023-03-27T20:40:06.282Z,5.07
2023-03-27T20:43:09.523Z,5.18
2023-03-27T20:46:14.041Z,5.19
2023-03-27T20:52:29.765Z,5.30
2023-03-27T20:55:34.639Z,5.32
2023-03-27T20:58:42.215Z,5.34
2023-03-27T21:01:45.191Z,5.32
2023-03-27T21:04:49.403Z,5.46
2023-03-27T21:07:52.599Z,5.48
2023-03-27T21:10:55.534Z,5.55
2023-03-27T21:13:58.237Z,5.60
2023-03-27T21:17:01.016Z,5.65
2023-03-27T21:20:06.019Z,5.53
2023-03-27T21:23:08.770Z,5.36
2023-03-27T21:26:11.396Z,5.23
2023-03-27T21:29:15.368Z,5.22
2023-03-27T21:32:18.071Z,5.22
2023-03-27T21:35:22.874Z,5.08
2023-03-27T21:38:25.584Z,4.88
2023-03-27T21:41:28.333Z,4.76
2023-03-27T21:44:31.181Z,4.72
2023-03-27T21:47:46.701Z,4.63
2023-03-27T21:50:51.580Z,4.57
2023-03-27T21:53:54.321Z,4.46
2023-03-27T21:56:57.019Z,4.45
2023-03-27T21:59:59.755Z,4.39
2023-03-27T22:03:02.951Z,4.23
2023-03-27T22:06:12.220Z,4.19
2023-03-27T22:09:16.793Z,4.07
2023-03-27T22:12:19.532Z,4.00
2023-03-27T22:15:22.552Z,3.97
2023-03-27T22:18:25.525Z,3.90
2023-03-27T22:21:30.974Z,3.86
2023-03-27T22:24:33.625Z,3.78
2023-03-27T22:27:36.836Z,3.80
2023-03-27T22:30:39.477Z,3.77
2023-03-27T22:33:42.187Z,3.78
2023-03-27T22:36:46.404Z,3.79
2023-03-27T22:39:49.033Z,3.84
2023-03-27T22:42:51.724Z,3.80
2023-03-27T22:45:54.394Z,3.86
2023-03-27T22:48:58.318Z,4.03
2023-03-27T22:52:02.368Z,4.07
2023-03-27T22:55:05.772Z,4.21
2023-03-27T22:58:08.449Z,4.18
2023-03-27T23:01:11.582Z,4.27
2023-03-27T23:04:14.571Z,4.37
2023-03-27T23:07:18.642Z,4.39
2023-03-27T23:10:21.360Z,4.30
2023-03-27T23:13:24.115Z,4.17
2023-03-27T23:16:27.223Z,4.05
2023-03-27T23:19:30.013Z,3.91
2023-03-27T23:22:34.029Z,3.75
2023-03-27T23:25:36.658Z,3.62
2023-03-27T23:28:41.315Z,3.58
2023-03-27T23:31:44.030Z,3.57
2023-03-27T23:34:46.711Z,3.62
2023-03-27T23:37:50.727Z,3.72
2023-03-27T23:40:57.537Z,3.81
2023-03-27T23:44:00.144Z,3.87
2023-03-27T23:47:03.083Z,3.91
2023-03-27T23:50:06.570Z,3.95
2023-03-27T23:53:11.322Z,3.86
2023-03-27T23:56:14.180Z,3.79
2023-03-27T23:59:16.824Z,3.63
